createdAt,value
2022-10-19T00:00:50.536Z,99013.31
2022-10-19T00:03:23.136Z,99012.19
2022-10-19T00:05:51.226Z,99018.63
2022-10-19T00:08:19.076Z,99025.63
2022-10-19T00:10:48.113Z,99032.94
2022-10-19T00:13:15.920Z,99028.59
2022-10-19T00:15:45.179Z,99029.41
2022-10-19T00:18:13.066Z,99030.00
2022-10-19T00:20:42.585Z,99027.78
2022-10-19T00:23:10.699Z,99024.81
2022-10-19T00:25:38.563Z,99029.72
2022-10-19T00:28:06.834Z,99031.94
2022-10-19T00:30:37.884Z,99032.50
2022-10-19T00:33:05.957Z,99021.91
2022-10-19T00:35:33.823Z,99025.19
2022-10-19T00:38:03.177Z,99031.94
2022-10-19T00:40:30.971Z,99020.28
2022-10-19T00:42:58.960Z,99025.94
2022-10-19T00:45:26.904Z,99026.41
2022-10-19T00:47:55.397Z,99025.53
2022-10-19T00:50:23.394Z,99022.38
2022-10-19T00:52:51.197Z,99023.72
2022-10-19T00:55:20.570Z,99018.91
2022-10-19T00:57:48.625Z,99025.16
2022-10-19T01:00:16.564Z,99024.66
2022-10-19T01:02:44.778Z,99025.47
2022-10-19T01:05:13.167Z,99017.09
2022-10-19T01:07:41.025Z,99023.06
2022-10-19T01:10:09.766Z,99029.19
2022-10-19T01:12:52.745Z,99019.66
2022-10-19T01:15:32.621Z,99019.97
2022-10-19T01:18:08.568Z,99023.91
2022-10-19T01:21:20.050Z,99021.44
2022-10-19T01:24:11.198Z,99009.91
2022-10-19T01:27:04.600Z,99019.75
2022-10-19T01:29:54.622Z,99002.97
2022-10-19T01:32:27.380Z,99008.47
2022-10-19T01:35:04.188Z,99008.22
2022-10-19T01:37:38.710Z,98998.47
2022-10-19T01:40:10.786Z,98995.50
2022-10-19T01:42:46.048Z,98999.00
2022-10-19T01:45:21.123Z,98991.16
2022-10-19T01:47:53.167Z,98993.84
2022-10-19T01:50:28.579Z,98990.06
2022-10-19T01:52:58.399Z,98993.31
2022-10-19T01:55:28.651Z,98978.41
2022-10-19T01:58:00.958Z,98985.22
2022-10-19T02:00:32.649Z,98986.28
2022-10-19T02:03:02.197Z,98984.91
2022-10-19T02:05:32.869Z,98977.31
2022-10-19T02:08:05.823Z,98973.25
2022-10-19T02:10:36.403Z,98968.38
2022-10-19T02:13:06.104Z,98966.75
2022-10-19T02:15:37.974Z,98962.16
2022-10-19T02:18:07.151Z,98962.72
2022-10-19T02:20:37.478Z,98962.19
2022-10-19T02:23:06.059Z,98954.63
2022-10-19T02:25:34.593Z,98958.97
2022-10-19T02:28:03.704Z,98951.41
2022-10-19T02:30:31.859Z,98954.69
2022-10-19T02:33:01.432Z,98946.56
2022-10-19T02:35:29.389Z,98948.41
2022-10-19T02:38:02.800Z,98942.41
2022-10-19T02:40:35.883Z,98941.03
2022-10-19T02:43:08.802Z,98944.25
2022-10-19T02:45:40.052Z,98943.72
2022-10-19T02:48:13.985Z,98935.59
2022-10-19T02:50:44.848Z,98931.25
2022-10-19T02:53:12.953Z,98940.22
2022-10-19T02:58:14.242Z,98928.03
2022-10-19T03:00:42.422Z,98922.59
2022-10-19T03:03:12.196Z,98926.13
2022-10-19T03:05:40.467Z,98927.53
2022-10-19T03:08:08.328Z,98925.63
2022-10-19T03:10:36.133Z,98922.66
2022-10-19T03:13:04.080Z,98928.59
2022-10-19T03:15:31.953Z,98926.41
2022-10-19T03:17:59.718Z,98930.19
2022-10-19T03:20:29.015Z,98927.69
2022-10-19T03:22:56.813Z,98930.66
2022-10-19T03:25:24.676Z,98927.41
2022-10-19T03:27:52.445Z,98925.97
2022-10-19T03:30:20.257Z,98924.56
2022-10-19T03:32:48.256Z,98921.59
2022-10-19T03:35:16.044Z,98921.34
2022-10-19T03:37:45.293Z,98922.16
2022-10-19T03:40:13.139Z,98917.00
2022-10-19T03:42:40.902Z,98915.06
2022-10-19T03:45:09.641Z,98914.25
2022-10-19T03:47:37.412Z,98918.59
2022-10-19T03:50:06.145Z,98919.91
2022-10-19T03:52:34.254Z,98916.63
2022-10-19T03:55:03.405Z,98918.53
2022-10-19T03:57:31.433Z,98919.84
2022-10-19T03:59:59.501Z,98911.47
2022-10-19T04:02:27.322Z,98920.41
2022-10-19T04:04:55.102Z,98915.25
2022-10-19T04:07:23.191Z,98905.75
2022-10-19T04:09:51.106Z,98911.34
2022-10-19T04:12:20.255Z,98913.25
2022-10-19T04:14:56.808Z,98910.78
2022-10-19T04:17:25.955Z,98912.13
2022-10-19T04:19:53.763Z,98908.84
2022-10-19T04:22:21.545Z,98908.50
2022-10-19T04:24:49.631Z,98911.66
2022-10-19T04:27:17.795Z,98912.34
2022-10-19T04:29:46.980Z,98909.81
2022-10-19T04:32:14.846Z,98915.72
2022-10-19T04:34:42.775Z,98920.06
2022-10-19T04:37:10.637Z,98918.75
2022-10-19T04:39:41.132Z,98923.09
2022-10-19T04:42:09.181Z,98912.53
2022-10-19T04:44:37.388Z,98931.72
2022-10-19T04:47:06.663Z,98929.03
2022-10-19T04:49:34.482Z,98925.81
2022-10-19T04:52:02.412Z,98926.06
2022-10-19T04:54:30.402Z,98927.38
2022-10-19T04:56:58.227Z,98926.00
2022-10-19T04:59:26.208Z,98922.44
2022-10-19T05:01:54.082Z,98925.63
2022-10-19T05:04:23.292Z,98924.75
2022-10-19T05:06:51.144Z,98923.03
2022-10-19T05:09:21.597Z,98919.19
2022-10-19T05:11:51.657Z,98916.66
2022-10-19T05:14:19.629Z,98916.66
2022-10-19T05:16:47.560Z,98918.06
2022-10-19T05:19:15.763Z,98919.94
2022-10-19T05:21:44.971Z,98919.78
2022-10-19T05:24:14.403Z,98918.56
2022-10-19T05:26:42.505Z,98909.06
2022-10-19T05:29:12.942Z,98913.97
2022-10-19T05:31:41.187Z,98919.38
2022-10-19T05:34:09.144Z,98919.56
2022-10-19T05:36:39.530Z,98914.06
2022-10-19T05:39:13.192Z,98912.09
2022-10-19T05:41:41.880Z,98907.25
2022-10-19T05:44:18.957Z,98910.88
2022-10-19T05:46:47.441Z,98914.72
2022-10-19T05:49:16.348Z,98913.66
2022-10-19T05:51:44.632Z,98912.59
2022-10-19T05:54:14.663Z,98916.19
2022-10-19T05:56:43.286Z,98910.28
2022-10-19T05:59:15.421Z,98913.56
2022-10-19T06:01:43.382Z,98917.06
2022-10-19T06:04:14.031Z,98920.84
2022-10-19T06:06:43.175Z,98923.06
2022-10-19T06:09:11.312Z,98925.53
2022-10-19T06:11:42.350Z,98926.34
2022-10-19T06:14:14.563Z,98934.78
2022-10-19T06:16:42.632Z,98926.41
2022-10-19T06:19:10.558Z,98935.94
2022-10-19T06:21:40.695Z,98937.88
2022-10-19T06:24:12.932Z,98934.13
2022-10-19T06:26:42.272Z,98932.22
2022-10-19T06:29:10.881Z,98926.81
2022-10-19T06:31:38.998Z,98924.94
2022-10-19T06:34:08.634Z,98927.88
2022-10-19T06:36:36.543Z,98926.25
2022-10-19T06:39:05.622Z,98925.91
2022-10-19T06:41:34.239Z,98923.72
2022-10-19T06:44:03.527Z,98921.50
2022-10-19T06:46:32.336Z,98923.13
2022-10-19T06:49:02.287Z,98923.97
2022-10-19T06:51:32.022Z,98929.13
2022-10-19T06:53:59.934Z,98922.06
2022-10-19T06:56:28.202Z,98923.97
2022-10-19T06:58:57.005Z,98928.06
2022-10-19T07:01:26.626Z,98924.28
2022-10-19T07:03:55.405Z,98930.50
2022-10-19T07:06:23.680Z,98934.38
2022-10-19T07:08:51.895Z,98928.19
2022-10-19T07:11:22.459Z,98934.25
2022-10-19T07:13:51.173Z,98936.16
2022-10-19T07:16:21.313Z,98934.34
2022-10-19T07:18:52.563Z,98948.19
2022-10-19T07:21:22.868Z,98944.69
2022-10-19T07:23:51.572Z,98946.41
2022-10-19T07:26:23.813Z,98946.22
2022-10-19T07:28:51.905Z,98940.88
2022-10-19T07:31:22.000Z,98940.44
2022-10-19T07:33:55.104Z,98940.28
2022-10-19T07:36:25.101Z,98944.19
2022-10-19T07:38:53.760Z,98936.44
2022-10-19T07:41:23.468Z,98950.09
2022-10-19T07:43:52.391Z,98949.38
2022-10-19T07:46:22.663Z,98947.28
2022-10-19T07:48:51.058Z,98951.16
2022-10-19T07:51:21.412Z,98949.88
2022-10-19T07:53:49.906Z,98955.66
2022-10-19T07:56:20.948Z,98947.53
2022-10-19T07:58:51.035Z,98950.28
2022-10-19T08:01:21.795Z,98959.81
2022-10-19T08:04:48.653Z,98955.25
2022-10-19T08:06:39.712Z,98962.81
2022-10-19T08:09:07.681Z,98953.59
2022-10-19T08:11:36.794Z,98956.88
2022-10-19T08:14:05.531Z,98953.91
2022-10-19T08:16:37.476Z,98956.09
2022-10-19T08:19:08.512Z,98957.28
2022-10-19T08:21:37.457Z,98952.97
2022-10-19T08:24:08.284Z,98960.84
2022-10-19T08:26:38.143Z,98953.84
2022-10-19T08:29:08.769Z,98960.91
2022-10-19T08:31:36.846Z,98952.00
2022-10-19T08:34:05.160Z,98946.50
2022-10-19T08:36:35.751Z,98949.56
2022-10-19T08:39:05.806Z,98948.22
2022-10-19T08:41:45.583Z,98951.47
2022-10-19T08:44:29.598Z,98948.25
2022-10-19T08:47:07.711Z,98942.00
2022-10-19T08:49:36.041Z,98951.31
2022-10-19T08:52:08.653Z,98943.50
2022-10-19T08:54:42.622Z,98944.91
2022-10-19T08:57:25.442Z,98940.03
2022-10-19T09:00:00.150Z,98948.25
2022-10-19T09:02:41.297Z,98939.56
2022-10-19T09:05:17.437Z,98946.13
2022-10-19T09:07:54.993Z,98937.50
2022-10-19T09:10:28.049Z,98943.75
2022-10-19T09:13:01.814Z,98947.81
2022-10-19T09:15:36.327Z,98945.69
2022-10-19T09:18:04.846Z,98946.53
2022-10-19T09:20:38.121Z,98950.91
2022-10-19T09:23:13.594Z,98940.91
2022-10-19T09:25:42.094Z,98935.41
2022-10-19T09:28:27.327Z,98931.34
2022-10-19T09:31:00.859Z,98942.28
2022-10-19T09:33:34.030Z,98930.63
2022-10-19T09:36:04.254Z,98929.25
2022-10-19T09:38:32.874Z,98925.44
2022-10-19T09:41:14.252Z,98928.16
2022-10-19T09:43:51.015Z,98923.56
2022-10-19T09:46:29.609Z,98928.75
2022-10-19T09:49:01.750Z,98923.31
2022-10-19T09:51:42.417Z,98914.34
2022-10-19T09:54:28.873Z,98923.34
2022-10-19T09:56:58.061Z,98921.72
2022-10-19T09:59:35.818Z,98923.06
2022-10-19T10:02:18.996Z,98920.34
2022-10-19T10:04:48.769Z,98917.31
2022-10-19T10:07:19.378Z,98912.13
2022-10-19T10:09:48.473Z,98913.41
2022-10-19T10:12:17.997Z,98911.06
2022-10-19T10:14:51.454Z,98911.41
2022-10-19T10:17:22.213Z,98901.59
2022-10-19T10:20:08.135Z,98908.47
2022-10-19T10:22:37.929Z,98903.75
2022-10-19T10:25:17.431Z,98897.47
2022-10-19T10:27:56.578Z,98906.06
2022-10-19T10:30:28.261Z,98897.84
2022-10-19T10:33:04.695Z,98901.00
2022-10-19T10:35:53.991Z,98891.41
2022-10-19T10:38:25.174Z,98891.28
2022-10-19T10:40:56.283Z,98884.75
2022-10-19T10:43:31.486Z,98884.34
2022-10-19T10:46:07.342Z,98891.72
2022-10-19T10:48:39.904Z,98886.28
2022-10-19T10:51:21.155Z,98882.03
2022-10-19T10:53:49.673Z,98870.94
2022-10-19T10:56:27.709Z,98875.78
2022-10-19T10:59:02.030Z,98872.81
2022-10-19T11:01:38.271Z,98867.06
2022-10-19T11:04:11.292Z,98859.84
2022-10-19T11:06:46.929Z,98857.38
2022-10-19T11:09:23.013Z,98856.75
2022-10-19T11:11:55.975Z,98854.34
2022-10-19T11:14:30.008Z,98854.44
2022-10-19T11:17:04.461Z,98854.88
2022-10-19T11:19:37.143Z,98839.31
2022-10-19T11:22:16.259Z,98850.09
2022-10-19T11:24:54.392Z,98835.94
2022-10-19T11:27:35.408Z,98827.69
2022-10-19T11:30:12.143Z,98822.19
2022-10-19T11:32:50.154Z,98826.59
2022-10-19T11:35:47.015Z,98816.81
2022-10-19T11:38:30.378Z,98815.28
2022-10-19T11:41:23.376Z,98809.84
2022-10-19T11:44:07.048Z,98817.22
2022-10-19T11:46:43.484Z,98804.25
2022-10-19T11:49:23.898Z,98811.84
2022-10-19T11:51:58.284Z,98798.34
2022-10-19T11:54:39.186Z,98788.09
2022-10-19T11:57:13.950Z,98781.00
2022-10-19T12:00:13.729Z,98775.72
2022-10-19T12:03:05.825Z,98774.28
2022-10-19T12:05:47.609Z,98773.25
2022-10-19T12:08:30.413Z,98771.75
2022-10-19T12:11:06.356Z,98762.75
2022-10-19T12:13:43.117Z,98758.75
2022-10-19T12:16:13.960Z,98749.72
2022-10-19T12:18:47.041Z,98742.53
2022-10-19T12:21:23.993Z,98737.25
2022-10-19T12:23:53.091Z,98735.91
2022-10-19T12:26:23.462Z,98735.09
2022-10-19T12:28:55.710Z,98739.38
2022-10-19T12:31:26.670Z,98737.66
2022-10-19T12:34:02.817Z,98734.28
2022-10-19T12:36:39.430Z,98734.50
2022-10-19T12:39:16.360Z,98724.75
2022-10-19T12:41:52.404Z,98737.66
2022-10-19T12:44:35.721Z,98735.84
2022-10-19T12:47:11.396Z,98733.28
2022-10-19T12:49:45.947Z,98722.72
2022-10-19T12:52:17.628Z,98721.78
2022-10-19T12:54:45.618Z,98724.34
2022-10-19T12:57:29.532Z,98723.41
2022-10-19T13:00:06.489Z,98716.97
2022-10-19T13:02:37.766Z,98714.75
2022-10-19T13:05:06.737Z,98713.91
2022-10-19T13:07:37.966Z,98706.91
2022-10-19T13:10:09.707Z,98706.31
2022-10-19T13:12:47.131Z,98703.38
2022-10-19T13:15:51.024Z,98710.88
2022-10-19T13:19:07.249Z,98698.22
2022-10-19T13:22:26.049Z,98706.31
2022-10-19T13:25:33.505Z,98705.66
2022-10-19T13:28:39.581Z,98694.75
2022-10-19T13:31:26.096Z,98693.19
2022-10-19T13:33:56.714Z,98681.44
2022-10-19T13:36:27.074Z,98680.41
2022-10-19T13:39:23.350Z,98678.78
2022-10-19T13:41:57.318Z,98668.06
2022-10-19T13:44:48.282Z,98671.69
2022-10-19T13:47:47.825Z,98677.06
2022-10-19T13:50:34.078Z,98684.97
2022-10-19T13:53:23.294Z,98675.44
2022-10-19T13:56:25.998Z,98671.97
2022-10-19T13:59:32.417Z,98666.13
2022-10-19T14:02:38.727Z,98659.84
2022-10-19T14:05:23.846Z,98660.59
2022-10-19T14:08:04.867Z,98650.84
2022-10-19T14:10:56.130Z,98654.44
2022-10-19T14:13:22.487Z,98651.19
2022-10-19T14:16:03.693Z,98652.53
2022-10-19T14:18:36.109Z,98652.44
2022-10-19T14:21:19.589Z,98648.75
2022-10-19T14:23:55.432Z,98646.09
2022-10-19T14:26:26.844Z,98644.78
2022-10-19T14:28:57.243Z,98631.16
2022-10-19T14:31:31.253Z,98633.25
2022-10-19T14:34:03.890Z,98629.84
2022-10-19T14:36:38.041Z,98618.50
2022-10-19T14:39:07.848Z,98623.31
2022-10-19T14:41:37.859Z,98617.34
2022-10-19T14:44:31.420Z,98616.09
2022-10-19T14:47:01.683Z,98610.41
2022-10-19T14:49:31.222Z,98615.78
2022-10-19T14:52:06.555Z,98610.34
2022-10-19T14:54:38.145Z,98621.84
2022-10-19T14:57:10.245Z,98611.22
2022-10-19T14:59:44.946Z,98597.94
2022-10-19T15:02:19.237Z,98599.31
2022-10-19T15:04:49.670Z,98592.38
2022-10-19T15:07:21.812Z,98593.09
2022-10-19T15:09:54.377Z,98594.25
2022-10-19T15:12:26.882Z,98600.97
2022-10-19T15:14:55.372Z,98599.13
2022-10-19T15:17:26.856Z,98594.56
2022-10-19T15:19:58.515Z,98600.66
2022-10-19T15:22:39.775Z,98588.81
2022-10-19T15:25:35.436Z,98595.78
2022-10-19T15:28:34.868Z,98605.94
2022-10-19T15:31:11.242Z,98608.78
2022-10-19T15:33:40.711Z,98608.31
2022-10-19T15:36:17.144Z,98595.25
2022-10-19T15:38:46.333Z,98591.22
2022-10-19T15:41:22.321Z,98597.25
2022-10-19T15:43:52.922Z,98598.94
2022-10-19T15:47:01.973Z,98601.69
2022-10-19T15:49:54.645Z,98595.53
2022-10-19T15:52:25.031Z,98593.94
2022-10-19T15:54:54.531Z,98588.28
2022-10-19T15:57:30.030Z,98582.94
2022-10-19T16:00:02.580Z,98580.25
2022-10-19T16:02:30.480Z,98582.16
2022-10-19T16:04:58.305Z,98577.03
2022-10-19T16:07:33.434Z,98568.88
2022-10-19T16:10:01.668Z,98570.56
2022-10-19T16:12:30.101Z,98570.13
2022-10-19T16:14:57.978Z,98578.88
2022-10-19T16:17:26.125Z,98569.63
2022-10-19T16:19:53.979Z,98573.22
2022-10-19T16:22:23.328Z,98556.97
2022-10-19T16:25:05.110Z,98564.88
2022-10-19T16:27:34.569Z,98560.00
2022-10-19T16:30:03.141Z,98564.66
2022-10-19T16:32:31.255Z,98559.53
2022-10-19T16:34:59.127Z,98566.66
2022-10-19T16:37:27.206Z,98570.22
2022-10-19T16:39:59.250Z,98569.69
2022-10-19T16:42:29.773Z,98584.38
2022-10-19T16:44:58.549Z,98576.81
2022-10-19T16:47:28.815Z,98582.78
2022-10-19T16:50:00.900Z,98576.03
2022-10-19T16:52:29.073Z,98579.25
2022-10-19T16:54:58.573Z,98575.25
2022-10-19T16:57:29.618Z,98579.06
2022-10-19T16:59:57.727Z,98573.88
2022-10-19T17:02:25.551Z,98583.41
2022-10-19T17:04:53.380Z,98586.94
2022-10-19T17:07:21.565Z,98587.50
2022-10-19T17:09:53.709Z,98590.75
2022-10-19T17:12:24.310Z,98586.13
2022-10-19T17:14:52.325Z,98581.84
2022-10-19T17:17:21.053Z,98568.53
2022-10-19T17:19:49.607Z,98570.16
2022-10-19T17:22:17.485Z,98575.03
2022-10-19T17:24:46.580Z,98577.22
2022-10-19T17:27:14.826Z,98574.50
2022-10-19T17:29:44.184Z,98569.59
2022-10-19T17:32:12.059Z,98576.94
2022-10-19T17:34:40.296Z,98584.25
2022-10-19T17:37:08.124Z,98592.97
2022-10-19T17:39:35.954Z,98584.00
2022-10-19T17:42:05.038Z,98588.34
2022-10-19T17:44:33.188Z,98594.03
2022-10-19T17:47:05.113Z,98594.56
2022-10-19T17:49:33.103Z,98591.59
2022-10-19T17:52:00.930Z,98585.88
2022-10-19T17:54:28.808Z,98582.88
2022-10-19T17:56:59.166Z,98586.13
2022-10-19T17:59:35.003Z,98581.53
2022-10-19T18:02:09.143Z,98586.72
2022-10-19T18:04:37.397Z,98575.53
2022-10-19T18:07:05.311Z,98582.31
2022-10-19T18:09:33.100Z,98588.28
2022-10-19T18:12:04.917Z,98589.91
2022-10-19T18:14:35.220Z,98586.13
2022-10-19T18:17:03.103Z,98592.34
2022-10-19T18:19:32.662Z,98587.19
2022-10-19T18:22:00.511Z,98585.56
2022-10-19T18:24:28.847Z,98587.19
2022-10-19T18:26:57.140Z,98598.88
2022-10-19T18:29:27.132Z,98602.94
2022-10-19T18:31:55.359Z,98597.78
2022-10-19T18:34:25.491Z,98604.00
2022-10-19T18:36:55.301Z,98605.63
2022-10-19T18:39:23.835Z,98602.63
2022-10-19T18:41:54.509Z,98596.94
2022-10-19T18:44:26.455Z,98593.66
2022-10-19T18:46:55.835Z,98584.13
2022-10-19T18:49:23.998Z,98580.59
2022-10-19T18:51:55.158Z,98576.25
2022-10-19T18:54:26.358Z,98566.44
2022-10-19T18:56:54.855Z,98568.91
2022-10-19T18:59:23.073Z,98561.81
2022-10-19T19:01:51.341Z,98562.91
2022-10-19T19:04:19.519Z,98556.38
2022-10-19T19:06:47.599Z,98551.78
2022-10-19T19:09:17.342Z,98552.31
2022-10-19T19:11:46.676Z,98551.50
2022-10-19T19:14:16.427Z,98544.16
2022-10-19T19:16:46.114Z,98554.19
2022-10-19T19:19:16.291Z,98547.41
2022-10-19T19:21:45.055Z,98547.66
2022-10-19T19:24:14.938Z,98546.28
2022-10-19T19:26:46.812Z,98553.06
2022-10-19T19:29:16.340Z,98560.94
2022-10-19T19:31:44.569Z,98556.59
2022-10-19T19:34:13.034Z,98559.00
2022-10-19T19:36:47.946Z,98560.09
2022-10-19T19:39:17.128Z,98554.94
2022-10-19T19:41:45.050Z,98551.16
2022-10-19T19:44:12.871Z,98551.66
2022-10-19T19:46:42.268Z,98544.88
2022-10-19T19:49:10.143Z,98542.16
2022-10-19T19:51:38.184Z,98540.00
2022-10-19T19:54:06.285Z,98545.94
2022-10-19T19:56:34.170Z,98541.31
2022-10-19T19:59:04.202Z,98544.78
2022-10-19T20:01:33.165Z,98547.22
2022-10-19T20:06:37.029Z,98536.28
2022-10-19T20:09:06.185Z,98536.00
2022-10-19T20:11:38.342Z,98524.06
2022-10-19T20:14:09.308Z,98518.34
2022-10-19T20:16:37.519Z,98518.59
2022-10-19T20:19:10.705Z,98522.09
2022-10-19T20:21:38.633Z,98519.66
2022-10-19T20:24:07.215Z,98528.88
2022-10-19T20:26:36.924Z,98528.03
2022-10-19T20:29:05.609Z,98517.97
2022-10-19T20:31:39.363Z,98515.00
2022-10-19T20:34:14.044Z,98514.19
2022-10-19T20:36:42.865Z,98517.47
2022-10-19T20:39:11.177Z,98517.16
2022-10-19T20:41:39.679Z,98509.56
2022-10-19T20:44:07.667Z,98518.19
2022-10-19T20:46:36.974Z,98518.47
2022-10-19T20:49:04.943Z,98509.50
2022-10-19T20:51:36.785Z,98513.28
2022-10-19T20:54:06.280Z,98504.59
2022-10-19T20:56:35.535Z,98509.44
2022-10-19T20:59:05.812Z,98503.44
2022-10-19T21:01:35.533Z,98502.06
2022-10-19T21:04:05.147Z,98502.31
2022-10-19T21:06:36.512Z,98497.44
2022-10-19T21:09:04.713Z,98494.97
2022-10-19T21:11:34.567Z,98497.44
2022-10-19T21:14:05.077Z,98500.94
2022-10-19T21:16:34.093Z,98492.28
2022-10-19T21:19:03.563Z,98494.44
2022-10-19T21:21:35.233Z,98496.31
2022-10-19T21:24:05.545Z,98498.47
2022-10-19T21:26:34.841Z,98500.06
2022-10-19T21:29:03.179Z,98493.56
2022-10-19T21:31:31.943Z,98495.72
2022-10-19T21:33:59.764Z,98503.28
2022-10-19T21:36:27.585Z,98510.00
2022-10-19T21:38:57.617Z,98498.63
2022-10-19T21:41:26.540Z,98502.16
2022-10-19T21:43:54.781Z,98498.34
2022-10-19T21:46:24.189Z,98494.25
2022-10-19T21:48:53.392Z,98500.19
2022-10-19T21:51:29.385Z,98503.69
2022-10-19T21:53:59.398Z,98497.22
2022-10-19T21:56:28.432Z,98494.75
2022-10-19T21:58:56.484Z,98496.91
2022-10-19T22:01:26.278Z,98489.56
2022-10-19T22:03:58.419Z,98488.75
2022-10-19T22:06:26.692Z,98491.47
2022-10-19T22:08:55.254Z,98485.22
2022-10-19T22:11:25.192Z,98469.25
2022-10-19T22:13:55.783Z,98469.25
2022-10-19T22:16:24.130Z,98462.22
2022-10-19T22:18:52.570Z,98465.97
2022-10-19T22:21:23.358Z,98461.91
2022-10-19T22:23:55.459Z,98455.94
2022-10-19T22:26:26.826Z,98459.16
2022-10-19T22:28:56.234Z,98462.38
2022-10-19T22:31:24.675Z,98462.06
2022-10-19T22:33:52.522Z,98465.38
2022-10-19T22:36:20.349Z,98463.56
2022-10-19T22:38:48.144Z,98460.31
2022-10-19T22:41:16.215Z,98461.06
2022-10-19T22:43:45.555Z,98456.16
2022-10-19T22:46:13.386Z,98458.56
2022-10-19T22:48:41.177Z,98461.00
2022-10-19T22:51:09.260Z,98462.91
2022-10-19T22:53:37.078Z,98460.44
2022-10-19T22:56:05.514Z,98451.78
2022-10-19T22:58:33.837Z,98452.50
2022-10-19T23:01:06.947Z,98450.34
2022-10-19T23:03:35.300Z,98459.31
2022-10-19T23:06:03.116Z,98453.09
2022-10-19T23:08:31.902Z,98443.69
2022-10-19T23:10:59.736Z,98442.81
2022-10-19T23:13:27.851Z,98443.56
2022-10-19T23:15:55.695Z,98436.84
2022-10-19T23:18:24.972Z,98437.91
2022-10-19T23:20:57.257Z,98431.31
2022-10-19T23:23:25.672Z,98441.56
2022-10-19T23:26:01.314Z,98433.72
2022-10-19T23:28:29.776Z,98439.06
2022-10-19T23:30:58.655Z,98430.16
2022-10-19T23:33:27.949Z,98427.19
2022-10-19T23:35:55.729Z,98414.00
2022-10-19T23:38:23.573Z,98412.03
2022-10-19T23:40:51.366Z,98404.50
2022-10-19T23:43:19.182Z,98397.78
2022-10-19T23:45:47.292Z,98398.91
2022-10-19T23:48:15.181Z,98390.19
2022-10-19T23:50:44.708Z,98398.03
2022-10-19T23:53:13.289Z,98401.31
2022-10-19T23:55:41.343Z,98407.03
2022-10-19T23:58:09.565Z,98404.63
